createdAt,value
2018-07-26T04:00:34.189Z,16.88
2018-07-26T04:01:34.124Z,16.88
2018-07-26T04:02:34.116Z,16.88
2018-07-26T04:03:34.106Z,16.88
2018-07-26T04:04:34.086Z,16.88
2018-07-26T04:05:34.165Z,22.50
2018-07-26T04:06:34.062Z,22.50
2018-07-26T04:07:34.052Z,22.50
2018-07-26T04:08:34.045Z,22.50
2018-07-26T04:09:34.031Z,22.50
2018-07-26T04:10:34.021Z,22.50
2018-07-26T04:11:34.018Z,22.50
2018-07-26T04:12:33.993Z,22.50
2018-07-26T04:13:33.985Z,28.12
2018-07-26T04:14:33.977Z,28.12
2018-07-26T04:15:33.984Z,28.12
2018-07-26T04:16:33.961Z,28.12
2018-07-26T04:17:33.945Z,28.12
2018-07-26T04:18:33.930Z,28.12
2018-07-26T04:19:33.919Z,28.12
2018-07-26T04:20:33.904Z,28.12
2018-07-26T04:21:33.916Z,33.75
2018-07-26T04:22:33.886Z,33.75
2018-07-26T04:23:33.873Z,33.75
2018-07-26T04:24:33.864Z,33.75
2018-07-26T04:25:33.850Z,33.75
2018-07-26T04:26:33.839Z,33.75
2018-07-26T04:27:33.845Z,33.75
2018-07-26T04:28:33.820Z,33.75
2018-07-26T04:29:33.816Z,39.38
2018-07-26T04:30:33.797Z,39.38
2018-07-26T04:31:33.785Z,39.38
2018-07-26T04:32:33.787Z,39.38
2018-07-26T04:33:33.764Z,39.38
2018-07-26T04:34:33.786Z,39.38
2018-07-26T04:35:33.749Z,39.38
2018-07-26T04:36:33.736Z,39.38
2018-07-26T04:37:33.752Z,45.00
2018-07-26T04:38:33.715Z,45.00
2018-07-26T04:39:33.715Z,45.00
2018-07-26T04:40:33.689Z,45.00
2018-07-26T04:41:33.674Z,45.00
2018-07-26T04:42:33.667Z,45.00
2018-07-26T04:43:33.663Z,45.00
2018-07-26T04:44:33.649Z,50.62
2018-07-26T04:45:33.634Z,50.62
2018-07-26T04:46:33.619Z,50.62
2018-07-26T04:47:33.612Z,50.62
2018-07-26T04:48:33.618Z,50.62
2018-07-26T04:49:33.598Z,50.62
2018-07-26T04:50:33.580Z,50.62
2018-07-26T04:51:33.571Z,50.62
2018-07-26T04:52:33.555Z,50.62
2018-07-26T04:53:33.555Z,56.25
2018-07-26T04:54:33.570Z,56.25
2018-07-26T04:55:33.522Z,56.25
2018-07-26T04:56:33.515Z,56.25
2018-07-26T04:57:33.509Z,56.25
2018-07-26T04:58:33.505Z,56.25
2018-07-26T04:59:33.478Z,56.25
2018-07-26T05:00:33.467Z,56.25
2018-07-26T05:01:33.456Z,61.88
2018-07-26T05:02:33.450Z,61.88
2018-07-26T05:03:33.444Z,61.88
2018-07-26T05:04:33.426Z,61.88
2018-07-26T05:05:33.416Z,61.88
2018-07-26T05:06:33.409Z,61.88
2018-07-26T05:07:33.389Z,61.88
2018-07-26T05:08:33.411Z,67.50
2018-07-26T05:09:33.372Z,67.50
2018-07-26T05:10:33.356Z,67.50
2018-07-26T05:11:33.346Z,67.50
2018-07-26T05:12:33.341Z,67.50
2018-07-26T05:13:33.325Z,67.50
2018-07-26T05:14:33.330Z,67.50
2018-07-26T05:15:33.307Z,67.50
2018-07-26T05:16:33.294Z,73.12
2018-07-26T05:17:33.282Z,73.12
2018-07-26T05:18:33.336Z,73.12
2018-07-26T05:19:33.269Z,73.12
2018-07-26T05:20:33.247Z,73.12
2018-07-26T05:21:33.235Z,73.12
2018-07-26T05:22:33.224Z,73.12
2018-07-26T05:23:33.228Z,73.12
2018-07-26T05:24:33.216Z,78.75
2018-07-26T05:25:33.192Z,78.75
2018-07-26T05:26:33.182Z,78.75
2018-07-26T05:27:33.174Z,78.75
2018-07-26T05:28:33.190Z,78.75
2018-07-26T05:29:33.165Z,78.75
2018-07-26T05:30:33.140Z,78.75
2018-07-26T05:31:33.127Z,78.75
2018-07-26T05:32:33.130Z,78.75
2018-07-26T05:33:33.125Z,84.38
2018-07-26T05:34:33.093Z,84.38
2018-07-26T05:35:33.095Z,84.38
2018-07-26T05:36:33.072Z,84.38
2018-07-26T05:37:33.094Z,84.38
2018-07-26T05:38:33.047Z,84.38
2018-07-26T05:39:33.039Z,90.00
2018-07-26T05:40:33.036Z,90.00
2018-07-26T05:41:33.020Z,90.00
2018-07-26T05:42:33.005Z,90.00
2018-07-26T05:43:32.995Z,90.00
2018-07-26T05:44:32.986Z,90.00
2018-07-26T05:45:32.987Z,90.00
2018-07-26T05:46:32.964Z,95.62
2018-07-26T05:47:32.963Z,95.62
2018-07-26T05:48:32.937Z,95.62
2018-07-26T05:49:32.926Z,95.62
2018-07-26T05:50:32.927Z,95.62
2018-07-26T05:51:32.910Z,95.62
2018-07-26T05:52:32.901Z,95.62
2018-07-26T05:53:32.899Z,101.25
2018-07-26T05:54:32.881Z,101.25
2018-07-26T05:55:32.874Z,101.25
2018-07-26T05:56:32.854Z,101.25
2018-07-26T05:57:32.842Z,101.25
2018-07-26T05:58:32.828Z,101.25
2018-07-26T05:59:32.832Z,106.88
2018-07-26T06:00:32.816Z,106.88
2018-07-26T06:01:32.806Z,106.88
2018-07-26T06:02:32.785Z,106.88
2018-07-26T06:03:32.773Z,112.50
2018-07-26T06:04:32.764Z,118.12
2018-07-26T06:05:32.764Z,135.00
2018-07-26T06:06:32.746Z,163.12
2018-07-26T06:07:32.731Z,213.75
2018-07-26T06:08:32.722Z,264.38
2018-07-26T06:09:32.711Z,286.88
2018-07-26T06:10:32.715Z,292.50
2018-07-26T06:11:32.691Z,298.12
2018-07-26T06:12:32.677Z,298.12
2018-07-26T06:13:32.662Z,298.12
2018-07-26T06:14:32.655Z,303.75
2018-07-26T06:15:32.650Z,303.75
2018-07-26T06:16:32.634Z,309.38
2018-07-26T06:17:32.626Z,309.38
2018-07-26T06:18:32.611Z,315.00
2018-07-26T06:19:32.596Z,320.62
2018-07-26T06:20:32.628Z,326.25
2018-07-26T06:21:32.576Z,326.25
2018-07-26T06:22:32.572Z,331.88
2018-07-26T06:23:32.557Z,331.88
2018-07-26T06:24:32.540Z,337.50
2018-07-26T06:25:32.530Z,343.12
2018-07-26T06:26:32.531Z,348.75
2018-07-26T06:27:32.511Z,348.75
2018-07-26T06:28:32.498Z,354.38
2018-07-26T06:29:32.485Z,354.38
2018-07-26T06:30:32.477Z,354.38
2018-07-26T06:31:32.476Z,360.00
2018-07-26T06:32:32.455Z,365.62
2018-07-26T06:33:32.461Z,371.25
2018-07-26T06:34:32.455Z,376.88
2018-07-26T06:35:32.423Z,382.50
2018-07-26T06:36:32.427Z,388.12
2018-07-26T06:37:32.398Z,393.75
2018-07-26T06:38:32.387Z,399.38
2018-07-26T06:39:32.472Z,399.38
2018-07-26T06:40:32.368Z,405.00
2018-07-26T06:41:32.372Z,405.00
2018-07-26T06:42:32.346Z,410.62
2018-07-26T06:43:32.338Z,416.25
2018-07-26T06:44:32.322Z,421.88
2018-07-26T06:45:32.309Z,433.12
2018-07-26T06:46:32.313Z,433.12
2018-07-26T06:47:32.285Z,421.88
2018-07-26T06:48:32.282Z,416.25
2018-07-26T06:49:32.269Z,416.25
2018-07-26T06:50:32.258Z,416.25
2018-07-26T06:51:32.276Z,438.75
2018-07-26T06:52:32.230Z,421.88
2018-07-26T06:53:32.222Z,421.88
2018-07-26T06:54:32.209Z,433.12
2018-07-26T06:55:32.198Z,427.50
2018-07-26T06:56:32.202Z,427.50
2018-07-26T06:57:32.181Z,438.75
2018-07-26T06:58:32.168Z,444.38
2018-07-26T06:59:32.155Z,438.75
2018-07-26T07:00:32.149Z,444.38
2018-07-26T07:01:32.154Z,450.00
2018-07-26T07:02:32.127Z,450.00
2018-07-26T07:03:32.112Z,455.62
2018-07-26T07:04:32.114Z,455.62
2018-07-26T07:05:32.092Z,455.62
2018-07-26T07:06:32.119Z,461.25
2018-07-26T07:07:32.079Z,472.50
2018-07-26T07:08:32.061Z,478.12
2018-07-26T07:09:32.049Z,483.75
2018-07-26T07:10:32.038Z,495.00
2018-07-26T07:11:32.029Z,500.62
2018-07-26T07:12:32.029Z,523.12
2018-07-26T07:13:32.010Z,669.38
2018-07-26T07:14:31.998Z,1153.12
2018-07-26T07:15:31.986Z,1929.38
2018-07-26T07:16:31.973Z,1710.00
2018-07-26T07:17:31.975Z,731.25
2018-07-26T07:18:31.953Z,579.38
2018-07-26T07:19:31.942Z,590.62
2018-07-26T07:20:31.962Z,601.88
2018-07-26T07:21:31.923Z,596.25
2018-07-26T07:22:31.921Z,652.50
2018-07-26T07:23:31.898Z,663.75
2018-07-26T07:24:31.890Z,1305.00
2018-07-26T07:25:31.879Z,2581.88
2018-07-26T07:26:31.866Z,3026.25
2018-07-26T07:27:31.872Z,3223.12
2018-07-26T07:28:31.847Z,3369.38
2018-07-26T07:29:31.835Z,3391.88
2018-07-26T07:30:31.824Z,3420.00
2018-07-26T07:31:31.820Z,3436.88
2018-07-26T07:32:31.818Z,3459.38
2018-07-26T07:33:31.797Z,3324.38
2018-07-26T07:34:31.788Z,2053.12
2018-07-26T07:35:31.797Z,860.62
2018-07-26T07:36:31.760Z,703.12
2018-07-26T07:37:31.784Z,691.88
2018-07-26T07:38:31.740Z,686.25
2018-07-26T07:39:31.728Z,669.38
2018-07-26T07:40:31.717Z,669.38
2018-07-26T07:41:31.707Z,658.12
2018-07-26T07:42:31.696Z,675.00
2018-07-26T07:43:31.697Z,686.25
2018-07-26T07:44:31.677Z,686.25
2018-07-26T07:45:31.664Z,675.00
2018-07-26T07:46:31.668Z,669.38
2018-07-26T07:47:31.684Z,675.00
2018-07-26T07:48:31.645Z,663.75
2018-07-26T07:49:31.627Z,675.00
2018-07-26T07:50:31.610Z,680.62
2018-07-26T07:51:31.600Z,680.62
2018-07-26T07:52:31.592Z,675.00
2018-07-26T07:53:31.592Z,680.62
2018-07-26T07:54:31.571Z,680.62
2018-07-26T07:55:31.556Z,686.25
2018-07-26T07:56:31.547Z,686.25
2018-07-26T07:57:31.537Z,691.88
2018-07-26T07:58:31.541Z,697.50
2018-07-26T07:59:31.560Z,708.75
2018-07-26T08:00:31.504Z,708.75
2018-07-26T08:01:31.492Z,720.00
2018-07-26T08:02:31.482Z,725.62
2018-07-26T08:03:31.482Z,742.50
2018-07-26T08:04:31.462Z,742.50
2018-07-26T08:05:31.455Z,748.12
2018-07-26T08:06:31.473Z,776.25
2018-07-26T08:07:31.429Z,832.50
2018-07-26T08:08:31.436Z,843.75
2018-07-26T08:09:31.407Z,826.88
2018-07-26T08:10:31.397Z,804.38
2018-07-26T08:11:31.395Z,821.25
2018-07-26T08:12:31.450Z,832.50
2018-07-26T08:13:31.368Z,849.38
2018-07-26T08:14:31.363Z,843.75
2018-07-26T08:15:31.343Z,843.75
2018-07-26T08:16:31.333Z,843.75
2018-07-26T08:17:31.326Z,843.75
2018-07-26T08:18:31.311Z,1265.62
2018-07-26T08:19:31.310Z,984.38
2018-07-26T08:20:31.288Z,3296.25
2018-07-26T08:21:31.282Z,3616.88
2018-07-26T08:22:31.270Z,4156.88
2018-07-26T08:23:31.259Z,4016.25
2018-07-26T08:24:31.256Z,4241.25
2018-07-26T08:25:31.235Z,4224.38
2018-07-26T08:26:31.226Z,4230.00
2018-07-26T08:27:31.215Z,4291.88
2018-07-26T08:28:31.204Z,4303.12
2018-07-26T08:29:31.261Z,4387.50
2018-07-26T08:30:31.188Z,4370.62
2018-07-26T08:31:31.174Z,4421.25
2018-07-26T08:32:31.162Z,4426.88
2018-07-26T08:33:31.151Z,4410.00
2018-07-26T08:34:31.157Z,4410.00
2018-07-26T08:35:31.130Z,4477.50
2018-07-26T08:36:31.120Z,4443.75
2018-07-26T08:37:31.115Z,4516.88
2018-07-26T08:38:31.103Z,4550.62
2018-07-26T08:39:31.101Z,4556.25
2018-07-26T08:40:31.081Z,4573.12
2018-07-26T08:41:31.068Z,4618.12
2018-07-26T08:42:31.054Z,4646.25
2018-07-26T08:43:31.070Z,4595.62
2018-07-26T08:44:31.049Z,4680.00
2018-07-26T08:45:31.022Z,4708.12
2018-07-26T08:46:31.013Z,4764.38
2018-07-26T08:47:31.004Z,4770.00
2018-07-26T08:48:30.991Z,4786.88
2018-07-26T08:49:30.993Z,4820.62
2018-07-26T08:50:30.973Z,5051.25
2018-07-26T08:51:30.957Z,5276.25
2018-07-26T08:52:30.949Z,5214.38
2018-07-26T08:53:30.939Z,5085.00
2018-07-26T08:54:30.941Z,5253.75
2018-07-26T08:55:30.917Z,5298.75
2018-07-26T08:56:30.907Z,5310.00
2018-07-26T08:57:30.895Z,5355.00
2018-07-26T08:58:30.885Z,5326.88
2018-07-26T08:59:30.884Z,1918.12
2018-07-26T09:00:30.864Z,658.12
2018-07-26T09:01:30.861Z,5400.00
2018-07-26T09:02:30.843Z,5456.25
2018-07-26T09:03:30.837Z,5416.88
2018-07-26T09:04:30.832Z,5439.38
2018-07-26T09:05:30.925Z,5484.38
2018-07-26T09:06:30.805Z,5546.25
2018-07-26T09:07:30.792Z,5596.88
2018-07-26T09:08:30.780Z,5523.75
2018-07-26T09:09:30.782Z,5394.38
2018-07-26T09:10:30.772Z,5625.00
2018-07-26T09:11:30.754Z,5827.50
2018-07-26T09:12:30.736Z,5906.25
2018-07-26T09:13:30.807Z,5917.50
2018-07-26T09:14:30.752Z,5782.50
2018-07-26T09:15:30.717Z,5625.00
2018-07-26T09:16:30.703Z,5580.00
2018-07-26T09:17:30.701Z,5568.75
2018-07-26T09:18:30.675Z,5681.25
2018-07-26T09:19:30.676Z,5788.12
2018-07-26T09:20:31.098Z,5731.88
2018-07-26T09:21:30.642Z,5805.00
2018-07-26T09:22:30.636Z,5816.25
2018-07-26T09:23:30.620Z,5788.12
2018-07-26T09:24:30.657Z,5844.38
2018-07-26T09:25:30.609Z,5821.88
2018-07-26T09:26:30.597Z,5917.50
2018-07-26T09:27:30.582Z,5872.50
2018-07-26T09:28:30.564Z,5771.25
2018-07-26T09:29:30.555Z,5698.12
2018-07-26T09:30:30.565Z,5619.38
2018-07-26T09:31:30.540Z,5776.88
2018-07-26T09:32:30.525Z,5821.88
2018-07-26T09:33:30.516Z,5850.00
2018-07-26T09:34:30.501Z,6030.00
2018-07-26T09:35:30.567Z,5911.88
2018-07-26T09:36:30.483Z,5670.00
2018-07-26T09:37:30.469Z,5968.12
2018-07-26T09:38:30.459Z,6120.00
2018-07-26T09:39:30.452Z,5833.12
2018-07-26T09:40:30.449Z,5900.62
2018-07-26T09:41:30.428Z,5895.00
2018-07-26T09:42:30.416Z,5433.75
2018-07-26T09:43:30.406Z,5040.00
2018-07-26T09:44:30.396Z,5101.88
2018-07-26T09:45:30.399Z,5636.25
2018-07-26T09:46:30.373Z,6210.00
2018-07-26T09:47:30.363Z,5613.75
2018-07-26T09:48:30.358Z,5073.75
2018-07-26T09:49:30.346Z,4905.00
2018-07-26T09:50:30.333Z,4511.25
2018-07-26T09:51:30.335Z,4021.88
2018-07-26T09:52:30.319Z,3892.50
2018-07-26T09:53:30.300Z,3825.00
2018-07-26T09:54:30.290Z,3757.50
2018-07-26T09:55:30.283Z,3768.75
2018-07-26T09:56:30.284Z,3695.62
2018-07-26T09:57:30.291Z,3656.25
2018-07-26T09:58:30.246Z,3616.88
2018-07-26T09:59:30.243Z,3577.50
2018-07-26T10:00:30.226Z,3588.75
2018-07-26T10:01:30.229Z,3538.12
2018-07-26T10:02:30.248Z,3526.88
2018-07-26T10:03:30.196Z,3510.00
2018-07-26T10:04:30.185Z,3521.25
2018-07-26T10:05:30.174Z,3481.88
2018-07-26T10:06:30.176Z,3436.88
2018-07-26T10:07:30.153Z,3403.12
2018-07-26T10:08:30.146Z,3369.38
2018-07-26T10:09:30.133Z,2801.25
2018-07-26T10:10:30.123Z,1130.62
2018-07-26T10:11:30.125Z,427.50
2018-07-26T10:12:31.868Z,365.62
2018-07-26T10:13:30.091Z,331.88
2018-07-26T10:14:30.081Z,303.75
2018-07-26T10:15:30.069Z,292.50
2018-07-26T10:16:30.074Z,281.25
2018-07-26T10:17:30.067Z,270.00
2018-07-26T10:18:30.068Z,253.12
2018-07-26T10:19:30.024Z,247.50
2018-07-26T10:20:30.018Z,236.25
2018-07-26T10:21:30.023Z,230.62
2018-07-26T10:22:29.998Z,230.62
2018-07-26T10:23:29.985Z,225.00
2018-07-26T10:24:29.973Z,230.62
2018-07-26T10:25:29.969Z,230.62
2018-07-26T10:26:29.966Z,230.62
2018-07-26T10:27:29.940Z,225.00
2018-07-26T10:28:29.946Z,225.00
2018-07-26T10:29:29.922Z,219.38
2018-07-26T10:30:29.909Z,219.38
2018-07-26T10:31:29.908Z,225.00
2018-07-26T10:32:29.886Z,225.00
2018-07-26T10:33:29.876Z,219.38
2018-07-26T10:34:29.864Z,225.00
2018-07-26T10:35:29.858Z,225.00
2018-07-26T10:36:29.853Z,225.00
2018-07-26T10:37:29.868Z,213.75
2018-07-26T10:38:29.823Z,213.75
2018-07-26T10:39:29.917Z,213.75
2018-07-26T10:40:29.801Z,213.75
2018-07-26T10:41:29.791Z,213.75
2018-07-26T10:42:29.813Z,219.38
2018-07-26T10:43:29.776Z,213.75
2018-07-26T10:44:29.783Z,213.75
2018-07-26T10:45:29.898Z,208.12
2018-07-26T10:46:29.745Z,208.12
2018-07-26T10:47:29.738Z,208.12
2018-07-26T10:48:29.724Z,208.12
2018-07-26T10:49:29.708Z,213.75
2018-07-26T10:50:29.701Z,219.38
2018-07-26T10:51:29.689Z,236.25
2018-07-26T10:52:29.683Z,264.38
2018-07-26T10:53:29.671Z,270.00
2018-07-26T10:54:29.658Z,213.75
2018-07-26T10:55:29.654Z,208.12
2018-07-26T10:56:29.634Z,191.25
2018-07-26T10:57:29.638Z,196.88
2018-07-26T10:58:29.610Z,202.50
2018-07-26T10:59:29.599Z,208.12
2018-07-26T11:00:29.589Z,208.12
2018-07-26T11:01:29.576Z,202.50
2018-07-26T11:02:29.574Z,202.50
2018-07-26T11:03:29.562Z,196.88
2018-07-26T11:04:29.549Z,202.50
2018-07-26T11:05:29.535Z,213.75
2018-07-26T11:06:29.527Z,241.88
2018-07-26T11:07:29.540Z,230.62
2018-07-26T11:08:29.513Z,219.38
2018-07-26T11:09:29.506Z,196.88
2018-07-26T11:10:29.487Z,213.75
2018-07-26T11:11:29.472Z,202.50
2018-07-26T11:12:29.472Z,168.75
2018-07-26T11:13:29.460Z,140.62
2018-07-26T11:14:29.444Z,146.25
2018-07-26T11:15:29.429Z,174.38
2018-07-26T11:16:29.467Z,174.38
2018-07-26T11:17:29.429Z,174.38
2018-07-26T11:18:29.394Z,168.75
2018-07-26T11:19:29.385Z,168.75
2018-07-26T11:20:29.379Z,168.75
2018-07-26T11:21:29.369Z,168.75
2018-07-26T11:22:29.352Z,168.75
2018-07-26T11:23:29.355Z,168.75
2018-07-26T11:24:29.334Z,168.75
2018-07-26T11:25:29.347Z,168.75
2018-07-26T11:26:29.310Z,168.75
2018-07-26T11:27:29.299Z,163.12
2018-07-26T11:28:29.302Z,163.12
2018-07-26T11:29:29.279Z,157.50
2018-07-26T11:30:29.268Z,157.50
2018-07-26T11:31:29.257Z,157.50
2018-07-26T11:32:29.300Z,163.12
2018-07-26T11:33:29.247Z,157.50
2018-07-26T11:34:29.224Z,163.12
2018-07-26T11:35:29.215Z,168.75
2018-07-26T11:36:29.202Z,174.38
2018-07-26T11:37:29.193Z,191.25
2018-07-26T11:38:29.194Z,196.88
2018-07-26T11:39:29.175Z,180.00
2018-07-26T11:40:29.163Z,174.38
2018-07-26T11:41:29.204Z,180.00
2018-07-26T11:42:29.139Z,180.00
2018-07-26T11:43:29.158Z,180.00
2018-07-26T11:44:29.120Z,180.00
2018-07-26T11:45:29.110Z,168.75
2018-07-26T11:46:29.192Z,157.50
2018-07-26T11:47:29.088Z,163.12
2018-07-26T11:48:29.085Z,174.38
2018-07-26T11:49:29.067Z,168.75
2018-07-26T11:50:29.054Z,163.12
2018-07-26T11:51:29.041Z,151.88
2018-07-26T11:52:29.068Z,135.00
2018-07-26T11:53:29.069Z,140.62
2018-07-26T11:54:29.010Z,157.50
2018-07-26T11:55:29.005Z,180.00
2018-07-26T11:56:28.989Z,180.00
2018-07-26T11:57:28.978Z,163.12
2018-07-26T11:58:28.980Z,168.75
2018-07-26T11:59:28.959Z,191.25
2018-07-26T12:00:28.947Z,202.50
2018-07-26T12:01:29.053Z,191.25
2018-07-26T12:02:29.007Z,180.00
2018-07-26T12:03:28.997Z,163.12
2018-07-26T12:04:28.903Z,157.50
2018-07-26T12:05:28.893Z,163.12
2018-07-26T12:06:28.884Z,163.12
2018-07-26T12:07:28.905Z,168.75
2018-07-26T12:08:28.862Z,174.38
2018-07-26T12:09:28.881Z,168.75
2018-07-26T12:10:28.840Z,163.12
2018-07-26T12:11:28.863Z,163.12
2018-07-26T12:12:28.819Z,168.75
2018-07-26T12:13:28.828Z,163.12
2018-07-26T12:14:28.897Z,163.12
2018-07-26T12:15:28.800Z,157.50
2018-07-26T12:16:28.819Z,163.12
2018-07-26T12:17:29.203Z,168.75
2018-07-26T12:18:28.838Z,157.50
2018-07-26T12:19:29.047Z,151.88
2018-07-26T12:20:28.849Z,146.25
2018-07-26T12:21:28.804Z,180.00
2018-07-26T12:22:28.749Z,191.25
2018-07-26T12:23:28.765Z,185.62
2018-07-26T12:24:28.692Z,180.00
2018-07-26T12:25:28.820Z,180.00
2018-07-26T12:26:28.696Z,174.38
2018-07-26T12:27:28.658Z,168.75
2018-07-26T12:28:28.654Z,168.75
2018-07-26T12:29:28.638Z,163.12
2018-07-26T12:30:28.638Z,157.50
2018-07-26T12:31:28.619Z,151.88
2018-07-26T12:32:28.608Z,146.25
2018-07-26T12:33:28.593Z,146.25
2018-07-26T12:34:28.583Z,140.62
2018-07-26T12:35:28.581Z,140.62
2018-07-26T12:36:28.563Z,135.00
2018-07-26T12:37:28.551Z,140.62
2018-07-26T12:38:28.541Z,146.25
2018-07-26T12:39:28.529Z,174.38
2018-07-26T12:40:28.528Z,174.38
2018-07-26T12:41:28.572Z,168.75
2018-07-26T12:42:28.498Z,157.50
2018-07-26T12:43:28.491Z,140.62
2018-07-26T12:44:28.477Z,135.00
2018-07-26T12:45:28.484Z,140.62
2018-07-26T12:46:28.457Z,129.38
2018-07-26T12:47:28.507Z,129.38
2018-07-26T12:48:28.436Z,129.38
2018-07-26T12:49:28.422Z,123.75
2018-07-26T12:50:28.423Z,123.75
2018-07-26T12:51:28.401Z,123.75
2018-07-26T12:52:28.393Z,129.38
2018-07-26T12:53:28.380Z,129.38
2018-07-26T12:54:28.370Z,135.00
2018-07-26T12:55:28.399Z,135.00
2018-07-26T12:56:28.347Z,135.00
2018-07-26T12:57:28.338Z,135.00
2018-07-26T12:58:28.327Z,140.62
2018-07-26T12:59:28.314Z,151.88
2018-07-26T13:00:28.306Z,163.12
2018-07-26T13:01:28.321Z,151.88
2018-07-26T13:02:28.292Z,151.88
2018-07-26T13:03:28.273Z,163.12
2018-07-26T13:04:28.264Z,163.12
2018-07-26T13:05:28.260Z,146.25
2018-07-26T13:06:28.258Z,129.38
2018-07-26T13:07:28.230Z,118.12
2018-07-26T13:08:28.223Z,118.12
2018-07-26T13:09:28.212Z,118.12
2018-07-26T13:10:28.199Z,112.50
2018-07-26T13:11:28.203Z,118.12
2018-07-26T13:12:28.208Z,129.38
2018-07-26T13:13:28.169Z,129.38
2018-07-26T13:14:28.156Z,135.00
2018-07-26T13:15:28.147Z,135.00
2018-07-26T13:16:28.148Z,135.00
2018-07-26T13:17:28.125Z,140.62
2018-07-26T13:18:28.116Z,157.50
2018-07-26T13:19:28.102Z,174.38
2018-07-26T13:20:28.094Z,180.00
2018-07-26T13:21:28.098Z,168.75
2018-07-26T13:22:28.071Z,168.75
2018-07-26T13:23:28.062Z,157.50
2018-07-26T13:24:28.050Z,151.88
2018-07-26T13:25:28.040Z,140.62
2018-07-26T13:26:28.042Z,129.38
2018-07-26T13:27:28.024Z,118.12
2018-07-26T13:28:28.008Z,118.12
2018-07-26T13:29:27.996Z,106.88
2018-07-26T13:30:27.990Z,106.88
2018-07-26T13:31:27.988Z,106.88
2018-07-26T13:32:27.964Z,106.88
2018-07-26T13:33:27.955Z,112.50
2018-07-26T13:34:27.942Z,112.50
2018-07-26T13:35:27.934Z,112.50
2018-07-26T13:36:27.937Z,106.88
2018-07-26T13:37:27.917Z,112.50
2018-07-26T13:38:27.903Z,112.50
2018-07-26T13:39:27.894Z,112.50
2018-07-26T13:40:27.882Z,118.12
2018-07-26T13:41:27.869Z,118.12
2018-07-26T13:42:27.873Z,118.12
2018-07-26T13:43:27.851Z,123.75
2018-07-26T13:44:27.849Z,123.75
2018-07-26T13:45:27.825Z,118.12
2018-07-26T13:46:27.817Z,129.38
2018-07-26T13:47:27.814Z,140.62
2018-07-26T13:48:27.796Z,180.00
2018-07-26T13:49:27.782Z,180.00
2018-07-26T13:50:27.781Z,174.38
2018-07-26T13:51:27.762Z,157.50
2018-07-26T13:52:27.866Z,135.00
2018-07-26T13:53:27.747Z,118.12
2018-07-26T13:54:27.734Z,106.88
2018-07-26T13:55:27.724Z,106.88
2018-07-26T13:56:27.712Z,95.62
2018-07-26T13:57:27.710Z,95.62
2018-07-26T13:58:27.717Z,95.62
2018-07-26T13:59:27.677Z,95.62
2018-07-26T14:00:27.667Z,95.62
2018-07-26T14:01:27.658Z,95.62
2018-07-26T14:02:27.687Z,95.62
2018-07-26T14:03:27.633Z,95.62
2018-07-26T14:04:27.625Z,95.62
2018-07-26T14:05:27.617Z,95.62
2018-07-26T14:06:27.602Z,95.62
2018-07-26T14:07:27.599Z,90.00
2018-07-26T14:08:27.579Z,95.62
2018-07-26T14:09:27.581Z,95.62
2018-07-26T14:10:27.563Z,95.62
2018-07-26T14:11:27.550Z,95.62
2018-07-26T14:12:27.555Z,95.62
2018-07-26T14:13:27.528Z,106.88
2018-07-26T14:14:27.517Z,118.12
2018-07-26T14:15:27.594Z,106.88
2018-07-26T14:16:27.495Z,90.00
2018-07-26T14:17:27.504Z,84.38
2018-07-26T14:18:27.475Z,95.62
2018-07-26T14:19:27.465Z,106.88
2018-07-26T14:20:27.454Z,118.12
2018-07-26T14:21:27.447Z,123.75
2018-07-26T14:22:27.475Z,123.75
2018-07-26T14:23:27.435Z,112.50
2018-07-26T14:24:27.412Z,101.25
2018-07-26T14:25:27.402Z,95.62
2018-07-26T14:26:27.390Z,84.38
2018-07-26T14:27:27.379Z,84.38
2018-07-26T14:28:27.379Z,84.38
2018-07-26T14:29:27.395Z,90.00
2018-07-26T14:30:27.352Z,95.62
2018-07-26T14:31:27.343Z,95.62
2018-07-26T14:32:27.328Z,90.00
2018-07-26T14:33:27.332Z,90.00
2018-07-26T14:34:27.306Z,90.00
2018-07-26T14:35:27.298Z,90.00
2018-07-26T14:36:27.285Z,90.00
2018-07-26T14:37:27.276Z,90.00
2018-07-26T14:38:27.274Z,90.00
2018-07-26T14:39:27.255Z,90.00
2018-07-26T14:40:27.241Z,84.38
2018-07-26T14:41:27.231Z,84.38
2018-07-26T14:42:27.220Z,84.38
2018-07-26T14:43:27.239Z,84.38
2018-07-26T14:44:27.199Z,84.38
2018-07-26T14:45:27.187Z,84.38
2018-07-26T14:46:27.178Z,84.38
2018-07-26T14:47:27.169Z,90.00
2018-07-26T14:48:27.158Z,84.38
2018-07-26T14:49:27.159Z,78.75
2018-07-26T14:50:27.132Z,78.75
2018-07-26T14:51:27.122Z,78.75
2018-07-26T14:52:27.114Z,78.75
2018-07-26T14:53:27.102Z,84.38
2018-07-26T14:54:27.151Z,84.38
2018-07-26T14:55:27.082Z,84.38
2018-07-26T14:56:27.065Z,90.00
2018-07-26T14:57:27.054Z,101.25
2018-07-26T14:58:27.046Z,106.88
2018-07-26T14:59:27.051Z,106.88
2018-07-26T15:00:27.025Z,95.62
2018-07-26T15:01:27.011Z,84.38
2018-07-26T15:02:27.000Z,78.75
2018-07-26T15:03:26.987Z,78.75
2018-07-26T15:04:26.991Z,78.75
2018-07-26T15:05:26.968Z,73.12
2018-07-26T15:06:26.958Z,73.12
2018-07-26T15:07:26.948Z,73.12
2018-07-26T15:08:26.932Z,73.12
2018-07-26T15:09:26.933Z,73.12
2018-07-26T15:10:26.912Z,73.12
2018-07-26T15:11:26.896Z,73.12
2018-07-26T15:12:26.892Z,73.12
2018-07-26T15:13:26.876Z,73.12
2018-07-26T15:14:26.876Z,73.12
2018-07-26T15:15:26.851Z,73.12
2018-07-26T15:16:26.844Z,67.50
2018-07-26T15:17:26.832Z,67.50
2018-07-26T15:18:26.819Z,61.88
2018-07-26T15:19:26.826Z,61.88
2018-07-26T15:20:26.807Z,67.50
2018-07-26T15:21:26.792Z,67.50
2018-07-26T15:22:26.777Z,61.88
2018-07-26T15:23:26.767Z,61.88
2018-07-26T15:25:58.956Z,73.12
2018-07-26T15:28:02.404Z,73.12
2018-07-26T15:29:02.350Z,73.12
2018-07-26T15:30:02.354Z,73.12
2018-07-26T15:31:02.347Z,73.12
2018-07-26T15:32:02.322Z,67.50
2018-07-26T15:33:02.304Z,67.50
2018-07-26T15:34:02.296Z,67.50
2018-07-26T15:35:02.293Z,67.50
2018-07-26T15:36:02.268Z,67.50
2018-07-26T15:37:02.263Z,67.50
2018-07-26T15:38:02.246Z,67.50
2018-07-26T15:39:02.243Z,73.12
2018-07-26T15:40:02.257Z,73.12
2018-07-26T15:41:02.217Z,73.12
2018-07-26T15:42:02.211Z,73.12
2018-07-26T15:43:02.193Z,73.12
2018-07-26T15:44:02.184Z,78.75
2018-07-26T15:45:02.189Z,78.75
2018-07-26T15:46:02.161Z,73.12
2018-07-26T15:47:02.208Z,67.50
2018-07-26T15:48:02.140Z,67.50
2018-07-26T15:49:02.129Z,67.50
2018-07-26T15:50:02.164Z,67.50
2018-07-26T15:51:02.120Z,67.50
2018-07-26T15:52:02.095Z,61.88
2018-07-26T15:53:02.085Z,61.88
2018-07-26T15:54:02.079Z,61.88
2018-07-26T15:55:02.061Z,61.88
2018-07-26T15:56:02.068Z,67.50
2018-07-26T15:57:02.046Z,67.50
2018-07-26T15:58:02.029Z,67.50
2018-07-26T15:59:02.035Z,67.50
2018-07-26T16:00:02.009Z,67.50
2018-07-26T16:01:02.010Z,67.50
2018-07-26T16:02:01.989Z,67.50
2018-07-26T16:03:01.976Z,67.50
2018-07-26T16:04:01.967Z,67.50
2018-07-26T16:05:01.953Z,73.12
2018-07-26T16:06:01.953Z,78.75
2018-07-26T16:07:01.931Z,73.12
2018-07-26T16:08:01.920Z,78.75
2018-07-26T16:09:01.911Z,84.38
2018-07-26T16:10:01.899Z,90.00
2018-07-26T16:11:01.902Z,95.62
2018-07-26T16:12:01.876Z,90.00
2018-07-26T16:13:01.866Z,84.38
2018-07-26T16:14:01.855Z,78.75
2018-07-26T16:15:01.851Z,73.12
2018-07-26T16:16:01.858Z,67.50
2018-07-26T16:17:01.827Z,61.88
2018-07-26T16:18:01.923Z,61.88
2018-07-26T16:19:01.802Z,56.25
2018-07-26T16:20:01.788Z,56.25
2018-07-26T16:21:01.780Z,56.25
2018-07-26T16:22:01.826Z,56.25
2018-07-26T16:23:01.757Z,56.25
2018-07-26T16:24:01.746Z,56.25
2018-07-26T16:25:01.738Z,56.25
2018-07-26T16:26:01.725Z,56.25
2018-07-26T16:27:01.729Z,56.25
2018-07-26T16:28:01.701Z,56.25
2018-07-26T16:29:01.739Z,56.25
2018-07-26T16:30:01.680Z,56.25
2018-07-26T16:31:01.669Z,56.25
2018-07-26T16:32:01.668Z,56.25
2018-07-26T16:33:01.648Z,56.25
2018-07-26T16:34:01.697Z,56.25
2018-07-26T16:35:01.630Z,56.25